sensor_id;sensor_type;location;lat;lon;timestamp;P1;durP1;ratioP1;P2;durP2;ratioP2
54193;SDS011;40102;50.906;6.972;2022-12-24T00:00:15;13.15;;;1.98;;
54193;SDS011;40102;50.906;6.972;2022-12-24T00:02:40;16.33;;;2.47;;
54193;SDS011;40102;50.906;6.972;2022-12-24T00:05:06;14.55;;;2.83;;
54193;SDS011;40102;50.906;6.972;2022-12-24T00:07:31;18.35;;;3.58;;
54193;SDS011;40102;50.906;6.972;2022-12-24T00:09:57;19.67;;;2.00;;
54193;SDS011;40102;50.906;6.972;2022-12-24T00:12:22;11.48;;;2.15;;
54193;SDS011;40102;50.906;6.972;2022-12-24T00:14:47;15.57;;;2.03;;
54193;SDS011;40102;50.906;6.972;2022-12-24T00:17:13;10.93;;;2.05;;
54193;SDS011;40102;50.906;6.972;2022-12-24T00:19:38;23.58;;;3.13;;
54193;SDS011;40102;50.906;6.972;2022-12-24T00:22:03;12.85;;;2.00;;
54193;SDS011;40102;50.906;6.972;2022-12-24T00:24:29;15.50;;;2.25;;
54193;SDS011;40102;50.906;6.972;2022-12-24T00:26:54;13.10;;;2.60;;
54193;SDS011;40102;50.906;6.972;2022-12-24T00:29:19;12.90;;;2.83;;
54193;SDS011;40102;50.906;6.972;2022-12-24T00:31:45;15.50;;;2.05;;
54193;SDS011;40102;50.906;6.972;2022-12-24T00:34:10;12.07;;;2.00;;
54193;SDS011;40102;50.906;6.972;2022-12-24T00:36:36;13.77;;;2.53;;
54193;SDS011;40102;50.906;6.972;2022-12-24T00:39:01;15.82;;;2.00;;
54193;SDS011;40102;50.906;6.972;2022-12-24T00:41:26;21.65;;;3.28;;
54193;SDS011;40102;50.906;6.972;2022-12-24T00:43:56;18.40;;;3.17;;
54193;SDS011;40102;50.906;6.972;2022-12-24T00:46:24;16.35;;;2.83;;
54193;SDS011;40102;50.906;6.972;2022-12-24T00:48:50;19.90;;;2.58;;
54193;SDS011;40102;50.906;6.972;2022-12-24T00:51:16;18.77;;;2.40;;
54193;SDS011;40102;50.906;6.972;2022-12-24T00:53:42;15.35;;;2.08;;
54193;SDS011;40102;50.906;6.972;2022-12-24T00:56:08;12.63;;;2.10;;
54193;SDS011;40102;50.906;6.972;2022-12-24T00:58:33;14.50;;;2.90;;
54193;SDS011;40102;50.906;6.972;2022-12-24T01:00:59;14.55;;;2.47;;
54193;SDS011;40102;50.906;6.972;2022-12-24T01:03:25;16.58;;;2.47;;
54193;SDS011;40102;50.906;6.972;2022-12-24T01:06:03;19.65;;;3.55;;
54193;SDS011;40102;50.906;6.972;2022-12-24T01:08:30;17.15;;;3.53;;
54193;SDS011;40102;50.906;6.972;2022-12-24T01:10:55;10.57;;;2.30;;
54193;SDS011;40102;50.906;6.972;2022-12-24T01:13:21;14.25;;;2.95;;
54193;SDS011;40102;50.906;6.972;2022-12-24T01:15:47;13.40;;;3.17;;
54193;SDS011;40102;50.906;6.972;2022-12-24T01:18:12;18.17;;;3.60;;
54193;SDS011;40102;50.906;6.972;2022-12-24T01:20:38;16.17;;;3.05;;
54193;SDS011;40102;50.906;6.972;2022-12-24T01:23:03;13.32;;;2.20;;
54193;SDS011;40102;50.906;6.972;2022-12-24T01:25:28;22.48;;;2.70;;
54193;SDS011;40102;50.906;6.972;2022-12-24T01:27:54;10.02;;;2.00;;
54193;SDS011;40102;50.906;6.972;2022-12-24T01:30:19;14.40;;;2.50;;
54193;SDS011;40102;50.906;6.972;2022-12-24T01:32:45;17.67;;;1.83;;
54193;SDS011;40102;50.906;6.972;2022-12-24T01:35:10;16.00;;;2.05;;
54193;SDS011;40102;50.906;6.972;2022-12-24T01:37:36;13.85;;;1.92;;
54193;SDS011;40102;50.906;6.972;2022-12-24T01:40:02;12.82;;;2.38;;
54193;SDS011;40102;50.906;6.972;2022-12-24T01:42:47;10.23;;;1.80;;
54193;SDS011;40102;50.906;6.972;2022-12-24T01:45:42;19.95;;;3.13;;
54193;SDS011;40102;50.906;6.972;2022-12-24T01:48:19;13.27;;;2.65;;
54193;SDS011;40102;50.906;6.972;2022-12-24T01:50:49;10.20;;;1.65;;
54193;SDS011;40102;50.906;6.972;2022-12-24T01:55:44;9.10;;;1.90;;
54193;SDS011;40102;50.906;6.972;2022-12-24T01:58:11;12.07;;;1.85;;
54193;SDS011;40102;50.906;6.972;2022-12-24T02:00:38;16.00;;;3.40;;
54193;SDS011;40102;50.906;6.972;2022-12-24T02:03:04;12.13;;;2.10;;
54193;SDS011;40102;50.906;6.972;2022-12-24T02:08:04;13.43;;;2.30;;
54193;SDS011;40102;50.906;6.972;2022-12-24T02:10:31;19.27;;;3.40;;
54193;SDS011;40102;50.906;6.972;2022-12-24T02:12:57;15.77;;;2.60;;
54193;SDS011;40102;50.906;6.972;2022-12-24T02:15:24;11.18;;;2.03;;
54193;SDS011;40102;50.906;6.972;2022-12-24T02:29:44;10.55;;;2.03;;
54193;SDS011;40102;50.906;6.972;2022-12-24T02:32:22;19.02;;;2.75;;
54193;SDS011;40102;50.906;6.972;2022-12-24T02:34:51;17.40;;;2.10;;
54193;SDS011;40102;50.906;6.972;2022-12-24T02:37:48;11.57;;;1.65;;
54193;SDS011;40102;50.906;6.972;2022-12-24T02:40:28;17.02;;;4.05;;
54193;SDS011;40102;50.906;6.972;2022-12-24T02:43:02;15.02;;;2.08;;
54193;SDS011;40102;50.906;6.972;2022-12-24T02:45:33;20.45;;;3.47;;
54193;SDS011;40102;50.906;6.972;2022-12-24T02:48:00;13.30;;;2.28;;
54193;SDS011;40102;50.906;6.972;2022-12-24T02:50:26;15.85;;;2.42;;
54193;SDS011;40102;50.906;6.972;2022-12-24T02:52:52;11.90;;;3.05;;
54193;SDS011;40102;50.906;6.972;2022-12-24T02:55:31;11.75;;;2.33;;
54193;SDS011;40102;50.906;6.972;2022-12-24T03:00:50;20.25;;;3.05;;
54193;SDS011;40102;50.906;6.972;2022-12-24T03:11:59;11.18;;;2.28;;
54193;SDS011;40102;50.906;6.972;2022-12-24T03:14:31;16.30;;;2.83;;
54193;SDS011;40102;50.906;6.972;2022-12-24T03:16:58;13.77;;;1.88;;
54193;SDS011;40102;50.906;6.972;2022-12-24T03:19:26;14.07;;;2.28;;
54193;SDS011;40102;50.906;6.972;2022-12-24T03:21:51;13.90;;;2.17;;
54193;SDS011;40102;50.906;6.972;2022-12-24T03:24:20;11.00;;;1.70;;
54193;SDS011;40102;50.906;6.972;2022-12-24T03:26:45;9.75;;;2.85;;
54193;SDS011;40102;50.906;6.972;2022-12-24T03:29:11;8.95;;;1.70;;
54193;SDS011;40102;50.906;6.972;2022-12-24T03:31:44;7.65;;;1.50;;
54193;SDS011;40102;50.906;6.972;2022-12-24T03:34:12;10.50;;;1.85;;
54193;SDS011;40102;50.906;6.972;2022-12-24T03:36:38;11.45;;;2.38;;
54193;SDS011;40102;50.906;6.972;2022-12-24T03:39:04;8.80;;;1.83;;
54193;SDS011;40102;50.906;6.972;2022-12-24T03:41:30;8.70;;;1.80;;
54193;SDS011;40102;50.906;6.972;2022-12-24T03:43:55;10.02;;;1.85;;
54193;SDS011;40102;50.906;6.972;2022-12-24T03:46:21;8.50;;;1.67;;
54193;SDS011;40102;50.906;6.972;2022-12-24T03:48:46;6.28;;;2.08;;
54193;SDS011;40102;50.906;6.972;2022-12-24T03:51:18;4.95;;;1.33;;
54193;SDS011;40102;50.906;6.972;2022-12-24T03:53:45;6.95;;;1.13;;
54193;SDS011;40102;50.906;6.972;2022-12-24T03:56:11;11.65;;;2.45;;
54193;SDS011;40102;50.906;6.972;2022-12-24T03:58:37;7.68;;;1.67;;
54193;SDS011;40102;50.906;6.972;2022-12-24T04:01:02;10.65;;;1.75;;
54193;SDS011;40102;50.906;6.972;2022-12-24T04:03:27;8.65;;;1.80;;
54193;SDS011;40102;50.906;6.972;2022-12-24T04:06:02;9.65;;;1.98;;
54193;SDS011;40102;50.906;6.972;2022-12-24T04:08:32;5.35;;;1.50;;
54193;SDS011;40102;50.906;6.972;2022-12-24T04:10:57;8.38;;;1.38;;
54193;SDS011;40102;50.906;6.972;2022-12-24T04:13:22;6.40;;;1.40;;
54193;SDS011;40102;50.906;6.972;2022-12-24T04:15:57;9.75;;;1.98;;
54193;SDS011;40102;50.906;6.972;2022-12-24T04:18:25;5.05;;;0.93;;
54193;SDS011;40102;50.906;6.972;2022-12-24T04:20:50;3.60;;;0.80;;
54193;SDS011;40102;50.906;6.972;2022-12-24T04:23:17;5.65;;;1.73;;
54193;SDS011;40102;50.906;6.972;2022-12-24T04:25:42;4.13;;;1.10;;
54193;SDS011;40102;50.906;6.972;2022-12-24T04:28:07;3.30;;;1.65;;
54193;SDS011;40102;50.906;6.972;2022-12-24T04:30:32;5.35;;;0.90;;
54193;SDS011;40102;50.906;6.972;2022-12-24T04:32:58;4.38;;;0.90;;
54193;SDS011;40102;50.906;6.972;2022-12-24T04:35:23;3.80;;;0.95;;
54193;SDS011;40102;50.906;6.972;2022-12-24T04:37:48;5.22;;;0.82;;
54193;SDS011;40102;50.906;6.972;2022-12-24T04:40:14;4.20;;;0.98;;
54193;SDS011;40102;50.906;6.972;2022-12-24T04:42:39;2.90;;;0.80;;
54193;SDS011;40102;50.906;6.972;2022-12-24T04:45:05;5.25;;;0.90;;
54193;SDS011;40102;50.906;6.972;2022-12-24T04:47:30;4.68;;;0.80;;
54193;SDS011;40102;50.906;6.972;2022-12-24T04:49:56;2.42;;;0.68;;
54193;SDS011;40102;50.906;6.972;2022-12-24T04:52:21;5.53;;;0.90;;
54193;SDS011;40102;50.906;6.972;2022-12-24T04:54:47;4.90;;;0.60;;
54193;SDS011;40102;50.906;6.972;2022-12-24T04:57:12;2.92;;;1.10;;
54193;SDS011;40102;50.906;6.972;2022-12-24T04:59:37;2.63;;;0.60;;
54193;SDS011;40102;50.906;6.972;2022-12-24T05:02:02;5.00;;;0.88;;
54193;SDS011;40102;50.906;6.972;2022-12-24T05:04:28;3.67;;;0.90;;
54193;SDS011;40102;50.906;6.972;2022-12-24T05:06:54;3.25;;;0.80;;
54193;SDS011;40102;50.906;6.972;2022-12-24T05:09:19;3.10;;;0.80;;
54193;SDS011;40102;50.906;6.972;2022-12-24T05:11:44;3.83;;;0.60;;
54193;SDS011;40102;50.906;6.972;2022-12-24T05:14:10;3.97;;;1.17;;
54193;SDS011;40102;50.906;6.972;2022-12-24T05:16:35;3.60;;;0.93;;
54193;SDS011;40102;50.906;6.972;2022-12-24T05:19:02;3.78;;;0.80;;
54193;SDS011;40102;50.906;6.972;2022-12-24T05:21:28;6.57;;;1.23;;
54193;SDS011;40102;50.906;6.972;2022-12-24T05:23:53;8.02;;;1.50;;
54193;SDS011;40102;50.906;6.972;2022-12-24T05:29:08;4.75;;;0.93;;
54193;SDS011;40102;50.906;6.972;2022-12-24T05:31:36;4.00;;;1.33;;
54193;SDS011;40102;50.906;6.972;2022-12-24T05:34:04;6.00;;;1.10;;
54193;SDS011;40102;50.906;6.972;2022-12-24T05:36:29;6.75;;;1.30;;
54193;SDS011;40102;50.906;6.972;2022-12-24T05:38:55;7.03;;;1.40;;
54193;SDS011;40102;50.906;6.972;2022-12-24T05:41:20;8.07;;;1.45;;
54193;SDS011;40102;50.906;6.972;2022-12-24T05:43:46;7.90;;;1.63;;
54193;SDS011;40102;50.906;6.972;2022-12-24T05:46:13;3.97;;;1.50;;
54193;SDS011;40102;50.906;6.972;2022-12-24T05:48:40;6.38;;;1.35;;
54193;SDS011;40102;50.906;6.972;2022-12-24T05:51:07;10.80;;;1.95;;
54193;SDS011;40102;50.906;6.972;2022-12-24T05:53:34;9.57;;;1.40;;
54193;SDS011;40102;50.906;6.972;2022-12-24T05:56:13;5.13;;;1.30;;
54193;SDS011;40102;50.906;6.972;2022-12-24T05:58:42;4.95;;;1.75;;
54193;SDS011;40102;50.906;6.972;2022-12-24T06:01:09;6.55;;;1.20;;
54193;SDS011;40102;50.906;6.972;2022-12-24T06:03:36;6.63;;;1.17;;
54193;SDS011;40102;50.906;6.972;2022-12-24T06:06:05;6.38;;;2.25;;
54193;SDS011;40102;50.906;6.972;2022-12-24T06:08:34;7.68;;;1.60;;
54193;SDS011;40102;50.906;6.972;2022-12-24T06:11:01;7.95;;;1.63;;
54193;SDS011;40102;50.906;6.972;2022-12-24T06:13:29;9.68;;;1.70;;
54193;SDS011;40102;50.906;6.972;2022-12-24T06:15:56;11.52;;;1.88;;
54193;SDS011;40102;50.906;6.972;2022-12-24T06:18:22;4.45;;;1.38;;
54193;SDS011;40102;50.906;6.972;2022-12-24T06:20:52;8.70;;;1.95;;
54193;SDS011;40102;50.906;6.972;2022-12-24T06:23:18;7.70;;;1.58;;
54193;SDS011;40102;50.906;6.972;2022-12-24T06:25:45;11.77;;;1.75;;
54193;SDS011;40102;50.906;6.972;2022-12-24T06:28:11;13.93;;;2.20;;
54193;SDS011;40102;50.906;6.972;2022-12-24T06:30:37;10.02;;;1.88;;
54193;SDS011;40102;50.906;6.972;2022-12-24T06:33:02;8.90;;;2.10;;
54193;SDS011;40102;50.906;6.972;2022-12-24T06:35:29;10.38;;;1.80;;
54193;SDS011;40102;50.906;6.972;2022-12-24T06:37:55;7.72;;;1.48;;
54193;SDS011;40102;50.906;6.972;2022-12-24T06:40:21;8.32;;;2.20;;
54193;SDS011;40102;50.906;6.972;2022-12-24T06:42:46;10.30;;;2.13;;
54193;SDS011;40102;50.906;6.972;2022-12-24T06:45:12;17.02;;;2.70;;
54193;SDS011;40102;50.906;6.972;2022-12-24T06:47:37;10.13;;;1.80;;
54193;SDS011;40102;50.906;6.972;2022-12-24T06:50:02;10.73;;;1.98;;
54193;SDS011;40102;50.906;6.972;2022-12-24T06:52:28;10.73;;;2.10;;
54193;SDS011;40102;50.906;6.972;2022-12-24T06:54:53;10.07;;;1.98;;
54193;SDS011;40102;50.906;6.972;2022-12-24T06:57:19;9.52;;;2.00;;
54193;SDS011;40102;50.906;6.972;2022-12-24T06:59:44;12.10;;;2.58;;
54193;SDS011;40102;50.906;6.972;2022-12-24T07:02:09;16.02;;;3.15;;
54193;SDS011;40102;50.906;6.972;2022-12-24T07:04:35;12.85;;;2.35;;
54193;SDS011;40102;50.906;6.972;2022-12-24T07:07:00;8.38;;;2.20;;
54193;SDS011;40102;50.906;6.972;2022-12-24T07:09:25;15.88;;;2.92;;
54193;SDS011;40102;50.906;6.972;2022-12-24T07:11:51;16.92;;;2.78;;
54193;SDS011;40102;50.906;6.972;2022-12-24T07:14:16;12.38;;;2.22;;
54193;SDS011;40102;50.906;6.972;2022-12-24T07:16:41;11.45;;;2.17;;
54193;SDS011;40102;50.906;6.972;2022-12-24T07:19:07;14.23;;;2.80;;
54193;SDS011;40102;50.906;6.972;2022-12-24T07:21:32;19.55;;;3.08;;
54193;SDS011;40102;50.906;6.972;2022-12-24T07:23:57;12.00;;;2.10;;
54193;SDS011;40102;50.906;6.972;2022-12-24T07:26:23;14.52;;;2.65;;
54193;SDS011;40102;50.906;6.972;2022-12-24T07:28:48;12.70;;;2.50;;
54193;SDS011;40102;50.906;6.972;2022-12-24T07:31:13;10.88;;;2.08;;
54193;SDS011;40102;50.906;6.972;2022-12-24T07:33:39;10.85;;;1.90;;
54193;SDS011;40102;50.906;6.972;2022-12-24T07:36:05;17.42;;;3.30;;
54193;SDS011;40102;50.906;6.972;2022-12-24T07:38:32;16.17;;;2.28;;
54193;SDS011;40102;50.906;6.972;2022-12-24T07:40:58;11.38;;;2.25;;
54193;SDS011;40102;50.906;6.972;2022-12-24T07:43:24;13.00;;;2.45;;
54193;SDS011;40102;50.906;6.972;2022-12-24T07:45:53;10.02;;;2.35;;
54193;SDS011;40102;50.906;6.972;2022-12-24T07:48:19;12.18;;;2.60;;
54193;SDS011;40102;50.906;6.972;2022-12-24T07:50:44;19.42;;;2.85;;
54193;SDS011;40102;50.906;6.972;2022-12-24T07:53:09;14.65;;;2.55;;
54193;SDS011;40102;50.906;6.972;2022-12-24T07:55:35;12.48;;;2.15;;
54193;SDS011;40102;50.906;6.972;2022-12-24T07:58:00;17.88;;;3.40;;
54193;SDS011;40102;50.906;6.972;2022-12-24T08:00:25;20.80;;;3.65;;
54193;SDS011;40102;50.906;6.972;2022-12-24T08:02:51;15.43;;;2.70;;
54193;SDS011;40102;50.906;6.972;2022-12-24T08:05:16;17.73;;;2.72;;
54193;SDS011;40102;50.906;6.972;2022-12-24T08:07:42;23.88;;;2.90;;
54193;SDS011;40102;50.906;6.972;2022-12-24T08:10:07;25.38;;;4.80;;
54193;SDS011;40102;50.906;6.972;2022-12-24T08:12:33;16.08;;;2.40;;
54193;SDS011;40102;50.906;6.972;2022-12-24T08:14:58;15.57;;;2.42;;
54193;SDS011;40102;50.906;6.972;2022-12-24T08:17:23;13.52;;;2.50;;
54193;SDS011;40102;50.906;6.972;2022-12-24T08:19:49;16.30;;;2.67;;
54193;SDS011;40102;50.906;6.972;2022-12-24T08:22:14;14.88;;;3.47;;
54193;SDS011;40102;50.906;6.972;2022-12-24T08:24:40;14.30;;;3.40;;
54193;SDS011;40102;50.906;6.972;2022-12-24T08:27:05;12.55;;;2.60;;
54193;SDS011;40102;50.906;6.972;2022-12-24T08:29:30;16.08;;;2.80;;
54193;SDS011;40102;50.906;6.972;2022-12-24T08:31:56;14.68;;;2.50;;
54193;SDS011;40102;50.906;6.972;2022-12-24T08:34:21;15.82;;;2.78;;
54193;SDS011;40102;50.906;6.972;2022-12-24T08:36:46;11.15;;;2.30;;
54193;SDS011;40102;50.906;6.972;2022-12-24T08:39:12;20.40;;;2.40;;
54193;SDS011;40102;50.906;6.972;2022-12-24T08:41:37;17.15;;;2.80;;
54193;SDS011;40102;50.906;6.972;2022-12-24T08:44:02;14.13;;;2.83;;
54193;SDS011;40102;50.906;6.972;2022-12-24T08:46:28;13.82;;;2.72;;
54193;SDS011;40102;50.906;6.972;2022-12-24T08:48:53;14.60;;;2.58;;
54193;SDS011;40102;50.906;6.972;2022-12-24T08:51:19;12.00;;;2.88;;
54193;SDS011;40102;50.906;6.972;2022-12-24T08:53:44;19.45;;;3.22;;
54193;SDS011;40102;50.906;6.972;2022-12-24T08:56:11;17.67;;;4.07;;
54193;SDS011;40102;50.906;6.972;2022-12-24T08:58:37;16.52;;;3.30;;
54193;SDS011;40102;50.906;6.972;2022-12-24T09:01:09;17.73;;;2.80;;
54193;SDS011;40102;50.906;6.972;2022-12-24T09:03:39;13.15;;;2.10;;
54193;SDS011;40102;50.906;6.972;2022-12-24T09:06:05;21.77;;;4.15;;
54193;SDS011;40102;50.906;6.972;2022-12-24T09:08:31;21.42;;;3.25;;
54193;SDS011;40102;50.906;6.972;2022-12-24T09:11:04;18.20;;;3.63;;
54193;SDS011;40102;50.906;6.972;2022-12-24T09:13:35;17.10;;;2.72;;
54193;SDS011;40102;50.906;6.972;2022-12-24T09:16:01;11.38;;;2.97;;
54193;SDS011;40102;50.906;6.972;2022-12-24T09:18:26;22.33;;;2.78;;
54193;SDS011;40102;50.906;6.972;2022-12-24T09:20:57;15.77;;;3.80;;
54193;SDS011;40102;50.906;6.972;2022-12-24T09:23:27;15.88;;;3.10;;
54193;SDS011;40102;50.906;6.972;2022-12-24T09:25:53;16.08;;;2.53;;
54193;SDS011;40102;50.906;6.972;2022-12-24T09:28:18;13.30;;;2.42;;
54193;SDS011;40102;50.906;6.972;2022-12-24T09:30:43;15.75;;;2.58;;
54193;SDS011;40102;50.906;6.972;2022-12-24T09:33:09;18.60;;;3.00;;
54193;SDS011;40102;50.906;6.972;2022-12-24T09:35:36;18.02;;;2.50;;
54193;SDS011;40102;50.906;6.972;2022-12-24T09:38:02;16.67;;;2.95;;
54193;SDS011;40102;50.906;6.972;2022-12-24T09:40:35;12.60;;;2.70;;
54193;SDS011;40102;50.906;6.972;2022-12-24T09:43:05;16.75;;;2.50;;
54193;SDS011;40102;50.906;6.972;2022-12-24T09:45:39;14.40;;;2.47;;
54193;SDS011;40102;50.906;6.972;2022-12-24T09:48:14;17.85;;;3.20;;
54193;SDS011;40102;50.906;6.972;2022-12-24T09:50:58;13.68;;;2.15;;
54193;SDS011;40102;50.906;6.972;2022-12-24T09:53:27;16.35;;;2.88;;
54193;SDS011;40102;50.906;6.972;2022-12-24T09:56:16;23.77;;;4.57;;
54193;SDS011;40102;50.906;6.972;2022-12-24T09:58:47;18.13;;;3.92;;
54193;SDS011;40102;50.906;6.972;2022-12-24T10:01:18;21.98;;;3.42;;
54193;SDS011;40102;50.906;6.972;2022-12-24T10:03:43;22.33;;;2.78;;
54193;SDS011;40102;50.906;6.972;2022-12-24T10:08:49;17.52;;;3.63;;
54193;SDS011;40102;50.906;6.972;2022-12-24T10:17:23;16.05;;;2.67;;
54193;SDS011;40102;50.906;6.972;2022-12-24T10:20:19;11.10;;;2.30;;
54193;SDS011;40102;50.906;6.972;2022-12-24T10:22:56;17.50;;;2.42;;
54193;SDS011;40102;50.906;6.972;2022-12-24T10:27:54;16.05;;;4.22;;
54193;SDS011;40102;50.906;6.972;2022-12-24T10:30:22;13.30;;;2.78;;
54193;SDS011;40102;50.906;6.972;2022-12-24T10:32:49;16.38;;;2.70;;
54193;SDS011;40102;50.906;6.972;2022-12-24T10:37:45;18.90;;;3.00;;
54193;SDS011;40102;50.906;6.972;2022-12-24T10:40:13;20.65;;;2.70;;
54193;SDS011;40102;50.906;6.972;2022-12-24T10:42:45;10.90;;;2.30;;
54193;SDS011;40102;50.906;6.972;2022-12-24T10:45:15;19.13;;;2.65;;
54193;SDS011;40102;50.906;6.972;2022-12-24T10:47:43;18.38;;;2.40;;
54193;SDS011;40102;50.906;6.972;2022-12-24T10:50:14;17.95;;;2.38;;
54193;SDS011;40102;50.906;6.972;2022-12-24T10:52:51;11.13;;;2.63;;
54193;SDS011;40102;50.906;6.972;2022-12-24T10:55:24;16.25;;;2.50;;
54193;SDS011;40102;50.906;6.972;2022-12-24T10:58:04;11.02;;;2.60;;
54193;SDS011;40102;50.906;6.972;2022-12-24T11:00:31;20.15;;;4.30;;
54193;SDS011;40102;50.906;6.972;2022-12-24T11:03:05;16.92;;;2.97;;
54193;SDS011;40102;50.906;6.972;2022-12-24T11:06:07;12.60;;;2.85;;
54193;SDS011;40102;50.906;6.972;2022-12-24T11:08:38;19.55;;;3.42;;
54193;SDS011;40102;50.906;6.972;2022-12-24T11:11:11;17.52;;;2.88;;
54193;SDS011;40102;50.906;6.972;2022-12-24T11:13:40;20.75;;;4.60;;
54193;SDS011;40102;50.906;6.972;2022-12-24T11:18:45;15.98;;;3.17;;
54193;SDS011;40102;50.906;6.972;2022-12-24T11:21:18;18.90;;;2.47;;
54193;SDS011;40102;50.906;6.972;2022-12-24T11:23:52;12.60;;;2.42;;
54193;SDS011;40102;50.906;6.972;2022-12-24T11:26:21;16.40;;;2.58;;
54193;SDS011;40102;50.906;6.972;2022-12-24T11:29:30;15.32;;;2.92;;
54193;SDS011;40102;50.906;6.972;2022-12-24T11:31:39;14.85;;;3.00;;
54193;SDS011;40102;50.906;6.972;2022-12-24T11:36:50;16.15;;;3.08;;
54193;SDS011;40102;50.906;6.972;2022-12-24T11:39:19;15.25;;;2.65;;
54193;SDS011;40102;50.906;6.972;2022-12-24T11:41:46;16.85;;;3.33;;
54193;SDS011;40102;50.906;6.972;2022-12-24T11:44:12;20.63;;;2.50;;
54193;SDS011;40102;50.906;6.972;2022-12-24T11:46:39;16.55;;;2.70;;
54193;SDS011;40102;50.906;6.972;2022-12-24T11:51:59;17.40;;;3.13;;
54193;SDS011;40102;50.906;6.972;2022-12-24T11:57:25;14.32;;;3.08;;
54193;SDS011;40102;50.906;6.972;2022-12-24T12:00:07;18.75;;;2.90;;
54193;SDS011;40102;50.906;6.972;2022-12-24T12:02:38;16.38;;;2.50;;
54193;SDS011;40102;50.906;6.972;2022-12-24T12:05:26;15.35;;;2.35;;
54193;SDS011;40102;50.906;6.972;2022-12-24T12:07:59;14.23;;;2.85;;
54193;SDS011;40102;50.906;6.972;2022-12-24T12:10:35;13.48;;;2.47;;
54193;SDS011;40102;50.906;6.972;2022-12-24T12:13:11;15.02;;;3.15;;
54193;SDS011;40102;50.906;6.972;2022-12-24T12:16:02;18.90;;;3.75;;
54193;SDS011;40102;50.906;6.972;2022-12-24T12:21:49;27.67;;;2.88;;
54193;SDS011;40102;50.906;6.972;2022-12-24T12:24:24;14.63;;;2.78;;
54193;SDS011;40102;50.906;6.972;2022-12-24T12:26:56;13.43;;;2.55;;
54193;SDS011;40102;50.906;6.972;2022-12-24T12:29:30;19.10;;;2.92;;
54193;SDS011;40102;50.906;6.972;2022-12-24T12:32:01;14.95;;;3.10;;
54193;SDS011;40102;50.906;6.972;2022-12-24T12:34:46;12.32;;;2.28;;
54193;SDS011;40102;50.906;6.972;2022-12-24T12:37:47;22.20;;;3.05;;
54193;SDS011;40102;50.906;6.972;2022-12-24T12:43:41;15.18;;;2.63;;
54193;SDS011;40102;50.906;6.972;2022-12-24T12:51:50;16.58;;;2.97;;
54193;SDS011;40102;50.906;6.972;2022-12-24T12:54:21;16.33;;;2.60;;
54193;SDS011;40102;50.906;6.972;2022-12-24T12:56:57;17.92;;;3.45;;
54193;SDS011;40102;50.906;6.972;2022-12-24T12:59:30;13.30;;;2.63;;
54193;SDS011;40102;50.906;6.972;2022-12-24T13:02:21;18.70;;;2.90;;
54193;SDS011;40102;50.906;6.972;2022-12-24T13:05:23;21.70;;;3.85;;
54193;SDS011;40102;50.906;6.972;2022-12-24T13:16:23;18.83;;;2.78;;
54193;SDS011;40102;50.906;6.972;2022-12-24T13:21:54;10.75;;;2.22;;
54193;SDS011;40102;50.906;6.972;2022-12-24T13:24:21;18.48;;;3.47;;
54193;SDS011;40102;50.906;6.972;2022-12-24T13:27:01;11.63;;;2.78;;
54193;SDS011;40102;50.906;6.972;2022-12-24T13:29:28;21.45;;;2.65;;
54193;SDS011;40102;50.906;6.972;2022-12-24T13:32:13;10.90;;;2.17;;
54193;SDS011;40102;50.906;6.972;2022-12-24T13:35:03;18.73;;;3.88;;
54193;SDS011;40102;50.906;6.972;2022-12-24T13:37:48;12.68;;;2.28;;
54193;SDS011;40102;50.906;6.972;2022-12-24T13:40:15;14.60;;;3.13;;
54193;SDS011;40102;50.906;6.972;2022-12-24T13:47:55;11.80;;;2.80;;
54193;SDS011;40102;50.906;6.972;2022-12-24T13:50:28;15.55;;;2.08;;
54193;SDS011;40102;50.906;6.972;2022-12-24T13:53:00;11.90;;;2.08;;
54193;SDS011;40102;50.906;6.972;2022-12-24T13:55:26;15.40;;;2.25;;
54193;SDS011;40102;50.906;6.972;2022-12-24T13:58:03;11.73;;;2.28;;
54193;SDS011;40102;50.906;6.972;2022-12-24T14:00:36;11.73;;;2.17;;
54193;SDS011;40102;50.906;6.972;2022-12-24T14:05:35;13.40;;;2.30;;
54193;SDS011;40102;50.906;6.972;2022-12-24T14:08:05;18.08;;;2.80;;
54193;SDS011;40102;50.906;6.972;2022-12-24T14:10:35;13.57;;;2.30;;
54193;SDS011;40102;50.906;6.972;2022-12-24T14:13:04;13.00;;;2.20;;
54193;SDS011;40102;50.906;6.972;2022-12-24T14:15:44;14.57;;;1.95;;
54193;SDS011;40102;50.906;6.972;2022-12-24T14:18:18;8.85;;;2.00;;
54193;SDS011;40102;50.906;6.972;2022-12-24T14:20:49;9.73;;;1.73;;
54193;SDS011;40102;50.906;6.972;2022-12-24T14:26:35;17.13;;;2.33;;
54193;SDS011;40102;50.906;6.972;2022-12-24T14:31:53;11.95;;;3.13;;
54193;SDS011;40102;50.906;6.972;2022-12-24T14:34:20;13.25;;;2.10;;
54193;SDS011;40102;50.906;6.972;2022-12-24T14:36:45;10.85;;;2.70;;
54193;SDS011;40102;50.906;6.972;2022-12-24T14:39:23;13.13;;;2.22;;
54193;SDS011;40102;50.906;6.972;2022-12-24T14:41:55;8.07;;;2.00;;
54193;SDS011;40102;50.906;6.972;2022-12-24T14:47:36;10.32;;;2.03;;
54193;SDS011;40102;50.906;6.972;2022-12-24T14:55:57;12.48;;;2.60;;
54193;SDS011;40102;50.906;6.972;2022-12-24T14:58:24;4.07;;;1.55;;
54193;SDS011;40102;50.906;6.972;2022-12-24T15:00:56;7.53;;;1.98;;
54193;SDS011;40102;50.906;6.972;2022-12-24T15:03:25;10.98;;;3.47;;
54193;SDS011;40102;50.906;6.972;2022-12-24T15:05:53;13.98;;;2.13;;
54193;SDS011;40102;50.906;6.972;2022-12-24T15:11:17;7.72;;;2.10;;
54193;SDS011;40102;50.906;6.972;2022-12-24T15:13:49;7.25;;;1.95;;
54193;SDS011;40102;50.906;6.972;2022-12-24T15:16:32;5.55;;;1.67;;
54193;SDS011;40102;50.906;6.972;2022-12-24T15:19:02;9.38;;;2.65;;
54193;SDS011;40102;50.906;6.972;2022-12-24T15:21:30;7.07;;;2.47;;
54193;SDS011;40102;50.906;6.972;2022-12-24T15:23:58;8.95;;;3.13;;
54193;SDS011;40102;50.906;6.972;2022-12-24T15:26:27;10.35;;;3.42;;
54193;SDS011;40102;50.906;6.972;2022-12-24T15:28:55;8.38;;;3.28;;
54193;SDS011;40102;50.906;6.972;2022-12-24T15:31:24;8.75;;;2.63;;
54193;SDS011;40102;50.906;6.972;2022-12-24T15:33:52;7.75;;;2.50;;
54193;SDS011;40102;50.906;6.972;2022-12-24T15:36:29;7.88;;;2.47;;
54193;SDS011;40102;50.906;6.972;2022-12-24T15:38:59;8.50;;;2.50;;
54193;SDS011;40102;50.906;6.972;2022-12-24T15:41:28;11.10;;;3.35;;
54193;SDS011;40102;50.906;6.972;2022-12-24T15:44:02;8.40;;;3.00;;
54193;SDS011;40102;50.906;6.972;2022-12-24T15:46:28;11.20;;;3.25;;
54193;SDS011;40102;50.906;6.972;2022-12-24T15:48:56;11.15;;;3.42;;
54193;SDS011;40102;50.906;6.972;2022-12-24T15:51:28;7.18;;;3.10;;
54193;SDS011;40102;50.906;6.972;2022-12-24T15:54:00;9.00;;;3.30;;
54193;SDS011;40102;50.906;6.972;2022-12-24T15:56:30;10.52;;;2.80;;
54193;SDS011;40102;50.906;6.972;2022-12-24T15:59:11;7.40;;;2.90;;
54193;SDS011;40102;50.906;6.972;2022-12-24T16:01:43;6.72;;;2.65;;
54193;SDS011;40102;50.906;6.972;2022-12-24T16:04:11;8.43;;;2.28;;
54193;SDS011;40102;50.906;6.972;2022-12-24T16:07:00;14.60;;;7.18;;
54193;SDS011;40102;50.906;6.972;2022-12-24T16:12:03;20.90;;;8.20;;
54193;SDS011;40102;50.906;6.972;2022-12-24T16:14:36;15.02;;;4.68;;
54193;SDS011;40102;50.906;6.972;2022-12-24T16:17:09;15.82;;;4.20;;
54193;SDS011;40102;50.906;6.972;2022-12-24T16:19:42;13.02;;;4.30;;
54193;SDS011;40102;50.906;6.972;2022-12-24T16:22:11;10.90;;;3.90;;
54193;SDS011;40102;50.906;6.972;2022-12-24T16:24:59;10.65;;;3.20;;
54193;SDS011;40102;50.906;6.972;2022-12-24T16:27:45;11.13;;;4.05;;
54193;SDS011;40102;50.906;6.972;2022-12-24T16:30:11;10.85;;;4.35;;
54193;SDS011;40102;50.906;6.972;2022-12-24T16:32:36;13.93;;;4.32;;
54193;SDS011;40102;50.906;6.972;2022-12-24T16:35:04;12.75;;;3.90;;
54193;SDS011;40102;50.906;6.972;2022-12-24T16:37:32;19.08;;;4.07;;